Terminal Aerodrome Forecast
Issued by NWS

Home | Current Version | Previous Version | Graphics & Text | Print | Product List | Glossary On
Versions: 1 2 3 4 5 6 7 8 9 10 11 12 13 14 15 16 17 18 19 20 21 22 23 24 25 26 27 28
000
FTUS42 KMHX 220500 RRA
TAFISO
TAF
KISO 220556Z 2206/2306 02007KT 5SM -RA SCT007 OVC020
      TEMPO 2207/2208 OVC007
     FM220800 03007KT 5SM -RA OVC007
     FM221300 04007KT 4SM -RA OVC005
     FM221900 35005KT 4SM -DZ OVC005
     FM230000 36002KT 1SM BR OVC004
      AMD LTD TO CLD VIS AND WIND=

USA.gov is the U.S. government's official web portal to all federal, state and local government web resources and services.